createdAt,value
2023-01-12T00:02:21.595Z,1.93
2023-01-12T00:04:49.189Z,2.50
2023-01-12T00:07:18.113Z,3.23
2023-01-12T00:09:45.794Z,2.80
2023-01-12T00:12:13.427Z,2.27
2023-01-12T00:14:40.863Z,2.67
2023-01-12T00:17:09.277Z,2.67
2023-01-12T00:19:38.879Z,2.53
2023-01-12T00:22:11.649Z,2.23
2023-01-12T00:24:41.386Z,1.97
2023-01-12T00:27:11.496Z,1.60
2023-01-12T00:29:39.048Z,1.97
2023-01-12T00:32:07.862Z,2.70
2023-01-12T00:34:35.195Z,1.63
2023-01-12T00:37:02.998Z,2.90
2023-01-12T00:39:30.399Z,1.73
2023-01-12T00:42:16.333Z,1.77
2023-01-12T00:45:02.598Z,3.20
2023-01-12T00:47:29.932Z,2.57
2023-01-12T00:49:57.198Z,1.70
2023-01-12T00:52:30.868Z,2.70
2023-01-12T00:54:59.966Z,2.30
2023-01-12T00:57:28.577Z,1.60
2023-01-12T00:59:58.391Z,3.23
2023-01-12T01:02:27.810Z,3.40
2023-01-12T01:04:55.728Z,2.73
2023-01-12T01:07:23.231Z,1.80
2023-01-12T01:09:51.046Z,3.23
2023-01-12T01:12:18.728Z,3.03
2023-01-12T01:14:47.848Z,3.63
2023-01-12T01:17:15.376Z,2.77
2023-01-12T01:19:43.953Z,3.17
2023-01-12T01:22:13.214Z,2.30
2023-01-12T01:24:41.822Z,3.30
2023-01-12T01:27:09.419Z,4.03
2023-01-12T01:29:37.022Z,3.43
2023-01-12T01:32:04.848Z,1.90
2023-01-12T01:34:32.690Z,3.33
2023-01-12T01:37:00.363Z,2.83
2023-01-12T01:39:27.815Z,3.00
2023-01-12T01:41:55.355Z,2.83
2023-01-12T01:44:31.974Z,3.63
2023-01-12T01:47:10.984Z,2.87
2023-01-12T01:49:49.084Z,2.50
2023-01-12T01:52:38.029Z,3.23
2023-01-12T01:55:20.143Z,3.30
2023-01-12T01:57:57.273Z,2.73
2023-01-12T02:00:25.851Z,2.40
2023-01-12T02:02:54.267Z,2.73
2023-01-12T02:05:25.423Z,2.97
2023-01-12T02:07:53.989Z,2.33
2023-01-12T02:10:21.733Z,2.37
2023-01-12T02:13:09.183Z,2.63
2023-01-12T02:16:26.375Z,3.10
2023-01-12T02:19:18.131Z,2.33
2023-01-12T02:22:14.492Z,2.33
2023-01-12T02:25:09.523Z,3.03
2023-01-12T02:27:45.581Z,2.60
2023-01-12T02:30:43.513Z,1.73
2023-01-12T02:33:24.284Z,2.83
2023-01-12T02:36:19.533Z,2.90
2023-01-12T02:38:49.927Z,2.67
2023-01-12T02:41:57.779Z,2.00
2023-01-12T02:44:34.526Z,2.70
2023-01-12T02:47:07.408Z,2.13
2023-01-12T02:49:40.730Z,1.10
2023-01-12T02:52:13.995Z,2.33
2023-01-12T02:54:43.921Z,2.50
2023-01-12T02:57:11.491Z,2.33
2023-01-12T02:59:41.944Z,1.93
2023-01-12T03:02:20.185Z,1.57
2023-01-12T03:04:47.764Z,2.20
2023-01-12T03:07:15.166Z,2.00
2023-01-12T03:09:48.048Z,1.83
2023-01-12T03:12:22.198Z,2.10
2023-01-12T03:14:51.508Z,2.17
2023-01-12T03:17:31.155Z,1.03
2023-01-12T03:20:07.334Z,1.40
2023-01-12T03:22:37.489Z,2.10
2023-01-12T03:25:11.333Z,1.93
2023-01-12T03:27:43.180Z,2.13
2023-01-12T03:30:21.494Z,2.60
2023-01-12T03:32:50.573Z,1.80
2023-01-12T03:35:22.322Z,2.40
2023-01-12T03:38:00.965Z,1.60
2023-01-12T03:40:35.580Z,2.00
2023-01-12T03:43:20.005Z,1.87
2023-01-12T03:45:57.187Z,2.30
2023-01-12T03:48:44.199Z,1.30
2023-01-12T03:51:14.544Z,1.43
2023-01-12T03:53:43.358Z,2.53
2023-01-12T03:56:13.107Z,2.17
2023-01-12T03:58:41.574Z,1.60
2023-01-12T04:01:09.156Z,2.53
2023-01-12T04:03:36.679Z,2.10
2023-01-12T04:06:04.351Z,2.10
2023-01-12T04:08:31.820Z,1.80
2023-01-12T04:10:59.283Z,1.63
2023-01-12T04:13:26.753Z,1.97
2023-01-12T04:15:54.056Z,1.43
2023-01-12T04:18:21.489Z,2.67
2023-01-12T04:20:49.013Z,1.80
2023-01-12T04:23:16.399Z,1.87
2023-01-12T04:25:43.704Z,2.13
2023-01-12T04:28:11.123Z,2.00
2023-01-12T04:30:38.544Z,1.97
2023-01-12T04:33:09.582Z,1.87
2023-01-12T04:35:37.286Z,2.20
2023-01-12T04:38:09.102Z,1.60
2023-01-12T04:40:36.558Z,2.43
2023-01-12T04:43:08.855Z,1.37
2023-01-12T04:45:40.392Z,1.67
2023-01-12T04:48:13.265Z,1.87
2023-01-12T04:50:41.540Z,1.27
2023-01-12T04:55:46.424Z,1.60
2023-01-12T04:58:17.158Z,1.73
2023-01-12T05:00:49.789Z,1.70
2023-01-12T05:08:50.715Z,1.80
2023-01-12T05:11:18.801Z,2.37
2023-01-12T05:13:46.504Z,1.23
2023-01-12T05:16:16.150Z,2.30
2023-01-12T05:18:45.232Z,1.30
2023-01-12T05:21:18.104Z,1.83
2023-01-12T05:23:45.972Z,1.63
2023-01-12T05:26:13.990Z,1.07
2023-01-12T05:31:23.202Z,1.73
2023-01-12T05:33:50.793Z,1.10
2023-01-12T05:36:20.068Z,1.63
2023-01-12T05:39:24.860Z,1.87
2023-01-12T05:42:11.095Z,1.37
2023-01-12T05:44:38.695Z,2.00
2023-01-12T05:47:06.628Z,1.60
2023-01-12T05:49:34.122Z,1.00
2023-01-12T05:52:02.609Z,1.30
2023-01-12T05:54:30.743Z,1.57
2023-01-12T05:56:59.209Z,1.60
2023-01-12T05:59:26.951Z,1.50
2023-01-12T06:04:28.673Z,1.97
2023-01-12T06:06:56.861Z,1.13
2023-01-12T06:09:24.945Z,1.00
2023-01-12T06:12:48.838Z,1.60
2023-01-12T06:16:19.918Z,1.80
2023-01-12T06:24:29.433Z,1.13
2023-01-12T06:26:57.395Z,1.67
2023-01-12T06:29:24.973Z,1.10
2023-01-12T06:31:52.524Z,1.73
2023-01-12T06:37:04.158Z,1.70
2023-01-12T06:39:32.290Z,1.30
2023-01-12T06:44:49.263Z,1.40
2023-01-12T06:47:16.815Z,1.40
2023-01-12T07:01:30.240Z,1.40
2023-01-12T07:06:39.860Z,1.83
2023-01-12T07:09:14.261Z,1.80
2023-01-12T07:11:53.790Z,1.40
2023-01-12T07:14:37.363Z,0.90
2023-01-12T07:17:08.382Z,1.20
2023-01-12T07:19:41.564Z,1.43
2023-01-12T07:22:15.963Z,1.70
2023-01-12T07:24:46.117Z,1.60
2023-01-12T07:48:27.755Z,0.90
2023-01-12T07:56:28.949Z,1.20
2023-01-12T07:59:08.874Z,1.17
2023-01-12T08:03:54.339Z,1.10
2023-01-12T08:04:35.869Z,0.70
2023-01-12T08:07:04.420Z,0.90
2023-01-12T08:09:41.041Z,0.90
2023-01-12T08:21:58.068Z,0.83
2023-01-12T08:30:45.373Z,0.90
2023-01-12T08:33:21.497Z,1.10
2023-01-12T08:35:55.485Z,1.10
2023-01-12T08:38:23.714Z,1.40
2023-01-12T08:44:07.987Z,1.40
2023-01-12T08:46:38.314Z,1.67
2023-01-12T08:51:43.742Z,1.43
2023-01-12T08:54:13.631Z,1.60
2023-01-12T09:05:01.523Z,1.37
2023-01-12T09:07:34.319Z,1.30
2023-01-12T09:10:05.401Z,1.53
2023-01-12T09:15:14.295Z,1.63
2023-01-12T09:17:45.294Z,1.87
2023-01-12T09:28:47.941Z,2.70
2023-01-12T09:31:41.540Z,1.03
2023-01-12T09:37:18.784Z,1.73
2023-01-12T09:39:55.597Z,2.57
2023-01-12T09:42:46.292Z,2.57
2023-01-12T09:45:48.795Z,2.87
2023-01-12T09:48:19.600Z,1.50
2023-01-12T09:51:13.577Z,1.27
2023-01-12T09:58:59.458Z,4.27
2023-01-12T10:04:48.417Z,2.90
2023-01-12T10:13:17.688Z,3.57
2023-01-12T10:21:40.333Z,4.07
2023-01-12T10:24:14.949Z,9.30
2023-01-12T10:26:46.384Z,4.93
2023-01-12T10:29:14.672Z,3.63
2023-01-12T10:31:43.736Z,4.10
2023-01-12T10:34:15.577Z,3.97
2023-01-12T10:36:47.124Z,4.05
2023-01-12T10:39:57.486Z,4.50
2023-01-12T10:42:44.655Z,6.15
2023-01-12T10:53:49.624Z,2.22
2023-01-12T10:56:31.823Z,4.15
2023-01-12T11:01:54.003Z,2.22
2023-01-12T11:07:32.843Z,9.60
2023-01-12T11:13:08.059Z,3.63
2023-01-12T11:15:40.282Z,3.00
2023-01-12T11:21:11.569Z,5.95
2023-01-12T11:29:26.264Z,3.55
2023-01-12T11:32:28.699Z,3.83
2023-01-12T11:35:04.687Z,3.30
2023-01-12T11:40:42.040Z,5.03
2023-01-12T11:44:09.958Z,5.00
2023-01-12T11:46:48.001Z,4.03
2023-01-12T11:51:59.482Z,4.43
2023-01-12T11:54:29.611Z,4.22
2023-01-12T11:57:16.405Z,3.85
2023-01-12T12:00:09.231Z,1.92
2023-01-12T12:02:41.985Z,5.38
2023-01-12T12:05:22.075Z,4.63
2023-01-12T12:08:11.089Z,3.08
2023-01-12T12:11:04.133Z,4.65
2023-01-12T12:13:45.076Z,4.63
2023-01-12T12:16:26.169Z,3.30
2023-01-12T12:18:54.062Z,4.95
2023-01-12T12:24:33.712Z,5.50
2023-01-12T12:27:27.035Z,4.00
2023-01-12T12:46:27.889Z,5.57
2023-01-12T12:49:18.602Z,2.47
2023-01-12T12:51:47.960Z,6.73
2023-01-12T12:54:21.250Z,6.53
2023-01-12T12:59:35.939Z,2.80
2023-01-12T13:02:04.183Z,3.97
2023-01-12T13:07:07.751Z,5.88
2023-01-12T13:09:37.675Z,3.65
2023-01-12T13:12:05.148Z,5.97
2023-01-12T13:17:21.390Z,6.10
2023-01-12T13:20:24.668Z,4.32
2023-01-12T13:22:53.024Z,5.25
2023-01-12T13:25:21.006Z,3.63
2023-01-12T13:30:54.299Z,5.70
2023-01-12T13:33:25.180Z,4.78
2023-01-12T13:46:56.147Z,5.13
2023-01-12T13:52:37.926Z,2.57
2023-01-12T13:55:23.562Z,7.67
2023-01-12T13:58:18.349Z,4.97
2023-01-12T14:00:59.097Z,4.07
2023-01-12T14:03:50.058Z,5.67
2023-01-12T14:06:42.285Z,7.73
2023-01-12T14:09:47.913Z,3.47
2023-01-12T14:12:36.573Z,6.30
2023-01-12T14:15:41.137Z,8.27
2023-01-12T14:18:16.868Z,5.30
2023-01-12T14:20:53.667Z,4.97
2023-01-12T14:23:27.003Z,5.03
2023-01-12T14:26:10.016Z,5.60
2023-01-12T14:28:39.214Z,6.57
2023-01-12T14:31:14.940Z,6.80
2023-01-12T14:33:50.359Z,7.57
2023-01-12T14:36:22.181Z,7.73
2023-01-12T14:38:50.907Z,5.85
2023-01-12T14:41:42.737Z,7.00
2023-01-12T14:44:47.068Z,7.80
2023-01-12T14:47:30.549Z,8.70
2023-01-12T14:50:15.089Z,8.80
2023-01-12T14:52:45.502Z,9.60
2023-01-12T14:55:26.326Z,7.63
2023-01-12T14:57:57.588Z,9.43
2023-01-12T15:00:29.715Z,9.35
2023-01-12T15:02:59.800Z,9.82
2023-01-12T15:05:33.316Z,5.73
2023-01-12T15:08:08.310Z,8.57
2023-01-12T15:10:39.823Z,9.85
2023-01-12T15:13:24.560Z,9.93
2023-01-12T15:16:11.745Z,8.70
2023-01-12T15:19:06.492Z,9.75
2023-01-12T15:21:53.749Z,6.90
2023-01-12T15:24:53.664Z,4.37
2023-01-12T15:27:23.520Z,10.30
2023-01-12T15:29:52.179Z,8.60
2023-01-12T15:32:29.661Z,4.85
2023-01-12T15:35:13.943Z,8.53
2023-01-12T15:37:41.618Z,7.10
2023-01-12T15:40:13.428Z,7.03
2023-01-12T15:42:41.038Z,6.85
2023-01-12T15:45:17.177Z,9.17
2023-01-12T15:47:44.533Z,6.17
2023-01-12T15:50:12.034Z,4.00
2023-01-12T15:52:39.589Z,10.60
2023-01-12T15:55:08.858Z,6.43
2023-01-12T15:57:37.651Z,5.80
2023-01-12T16:00:05.564Z,11.27
2023-01-12T16:02:39.381Z,12.13
2023-01-12T16:05:07.109Z,11.57
2023-01-12T16:07:34.553Z,10.77
2023-01-12T16:10:02.221Z,8.77
2023-01-12T16:12:29.950Z,6.87
2023-01-12T16:14:59.107Z,9.53
2023-01-12T16:17:26.655Z,7.38
2023-01-12T16:19:54.271Z,7.18
2023-01-12T16:22:26.869Z,8.80
2023-01-12T16:24:56.316Z,6.00
2023-01-12T16:27:25.776Z,6.03
2023-01-12T16:29:53.872Z,6.85
2023-01-12T16:32:26.042Z,4.13
2023-01-12T16:34:53.602Z,6.05
2023-01-12T16:37:23.196Z,6.28
2023-01-12T16:39:50.630Z,5.72
2023-01-12T16:42:18.000Z,6.50
2023-01-12T16:44:49.620Z,5.47
2023-01-12T16:47:19.845Z,4.23
2023-01-12T16:49:52.642Z,5.40
2023-01-12T16:52:22.208Z,5.97
2023-01-12T16:54:49.575Z,6.13
2023-01-12T16:57:18.635Z,6.10
2023-01-12T16:59:46.240Z,3.17
2023-01-12T17:02:17.754Z,4.93
2023-01-12T17:04:45.941Z,3.43
2023-01-12T17:07:13.533Z,3.80
2023-01-12T17:09:41.570Z,5.43
2023-01-12T17:12:10.658Z,5.43
2023-01-12T17:14:38.139Z,5.45
2023-01-12T17:17:10.978Z,3.47
2023-01-12T17:19:43.166Z,3.57
2023-01-12T17:22:11.900Z,4.23
2023-01-12T17:24:40.545Z,4.53
2023-01-12T17:27:10.164Z,3.83
2023-01-12T17:29:37.882Z,3.45
2023-01-12T17:32:08.037Z,4.73
2023-01-12T17:34:39.712Z,5.80
2023-01-12T17:37:10.592Z,4.15
2023-01-12T17:39:45.369Z,4.17
2023-01-12T17:42:34.280Z,4.77
2023-01-12T17:45:02.244Z,5.82
2023-01-12T17:47:29.799Z,4.03
2023-01-12T17:50:02.946Z,4.87
2023-01-12T17:52:30.407Z,7.07
2023-01-12T17:54:57.771Z,8.48
2023-01-12T17:57:26.117Z,8.35
2023-01-12T17:59:54.507Z,5.35
2023-01-12T18:02:22.507Z,5.00
2023-01-12T18:04:50.041Z,8.70
2023-01-12T18:07:17.529Z,5.00
2023-01-12T18:09:45.034Z,8.33
2023-01-12T18:12:12.585Z,6.93
2023-01-12T18:14:40.026Z,5.40
2023-01-12T18:17:09.445Z,8.23
2023-01-12T18:19:37.525Z,3.87
2023-01-12T18:22:07.189Z,8.43
2023-01-12T18:24:35.078Z,8.65
2023-01-12T18:27:03.230Z,9.35
2023-01-12T18:29:30.789Z,9.60
2023-01-12T18:31:58.136Z,3.22
2023-01-12T18:34:25.659Z,7.88
2023-01-12T18:36:53.126Z,5.93
2023-01-12T18:39:21.246Z,3.90
2023-01-12T18:42:08.843Z,9.15
2023-01-12T18:44:38.153Z,10.43
2023-01-12T18:47:24.742Z,6.27
2023-01-12T18:49:54.487Z,10.15
2023-01-12T18:52:40.632Z,10.13
2023-01-12T18:55:08.227Z,9.20
2023-01-12T18:57:35.875Z,8.18
2023-01-12T19:00:16.760Z,7.10
2023-01-12T19:02:45.173Z,8.93
2023-01-12T19:05:16.305Z,8.30
2023-01-12T19:07:58.766Z,8.35
2023-01-12T19:10:28.118Z,9.83
2023-01-12T19:13:14.004Z,9.52
2023-01-12T19:16:00.684Z,7.17
2023-01-12T19:18:28.756Z,4.43
2023-01-12T19:21:21.767Z,10.03
2023-01-12T19:24:08.106Z,9.93
2023-01-12T19:26:53.946Z,9.50
2023-01-12T19:29:22.510Z,2.83
2023-01-12T19:31:49.943Z,8.83
2023-01-12T19:34:20.899Z,6.05
2023-01-12T19:36:48.521Z,4.30
2023-01-12T19:39:22.074Z,7.65
2023-01-12T19:42:08.104Z,8.77
2023-01-12T19:44:35.575Z,7.95
2023-01-12T19:47:03.031Z,8.82
2023-01-12T19:49:30.466Z,6.10
2023-01-12T19:51:57.953Z,7.97
2023-01-12T19:54:26.123Z,7.05
2023-01-12T19:56:53.446Z,5.68
2023-01-12T19:59:20.853Z,8.52
2023-01-12T20:01:50.805Z,9.13
2023-01-12T20:04:18.365Z,8.18
2023-01-12T20:06:45.853Z,8.20
2023-01-12T20:09:13.512Z,9.70
2023-01-12T20:11:41.003Z,8.30
2023-01-12T20:14:10.621Z,9.30
2023-01-12T20:16:38.308Z,9.77
2023-01-12T20:19:05.633Z,11.23
2023-01-12T20:21:32.982Z,12.33
2023-01-12T20:24:01.864Z,9.50
2023-01-12T20:26:31.306Z,11.13
2023-01-12T20:29:02.788Z,9.32
2023-01-12T20:31:30.292Z,7.30
2023-01-12T20:33:57.776Z,11.45
2023-01-12T20:36:25.865Z,7.13
2023-01-12T20:38:53.487Z,9.35
2023-01-12T20:41:22.878Z,10.05
2023-01-12T20:43:54.180Z,8.75
2023-01-12T20:46:21.759Z,6.57
2023-01-12T20:48:49.215Z,9.23
2023-01-12T20:51:17.179Z,5.70
2023-01-12T20:53:44.817Z,11.35
2023-01-12T20:56:12.425Z,12.20
2023-01-12T20:58:39.845Z,9.98
2023-01-12T21:01:12.758Z,14.25
2023-01-12T21:03:40.771Z,9.85
2023-01-12T21:06:17.566Z,15.07
2023-01-12T21:08:46.404Z,9.90
2023-01-12T21:11:17.733Z,13.55
2023-01-12T21:13:45.446Z,12.57
2023-01-12T21:16:16.456Z,8.05
2023-01-12T21:18:44.308Z,10.05
2023-01-12T21:21:12.232Z,6.65
2023-01-12T21:23:39.708Z,14.50
2023-01-12T21:26:08.402Z,9.30
2023-01-12T21:28:38.343Z,9.73
2023-01-12T21:31:08.563Z,14.02
2023-01-12T21:33:36.189Z,11.77
2023-01-12T21:36:04.386Z,13.43
2023-01-12T21:38:31.891Z,12.57
2023-01-12T21:41:04.907Z,9.80
2023-01-12T21:43:33.439Z,13.18
2023-01-12T21:46:11.970Z,12.53
2023-01-12T21:48:39.365Z,12.40
2023-01-12T21:51:15.585Z,8.88
2023-01-12T21:53:44.207Z,8.80
2023-01-12T21:56:13.215Z,7.55
2023-01-12T21:58:40.962Z,4.30
2023-01-12T22:01:11.197Z,8.43
2023-01-12T22:03:38.950Z,7.25
2023-01-12T22:06:12.523Z,9.60
2023-01-12T22:08:41.340Z,8.13
2023-01-12T22:11:10.852Z,7.90
2023-01-12T22:13:38.912Z,9.20
2023-01-12T22:16:09.654Z,9.05
2023-01-12T22:18:37.944Z,9.25
2023-01-12T22:21:07.932Z,7.95
2023-01-12T22:23:38.881Z,8.90
2023-01-12T22:26:09.574Z,8.30
2023-01-12T22:28:39.604Z,7.18
2023-01-12T22:31:18.957Z,5.40
2023-01-12T22:33:48.475Z,5.13
2023-01-12T22:36:15.894Z,6.77
2023-01-12T22:38:43.244Z,5.70
2023-01-12T22:41:15.652Z,5.43
2023-01-12T22:43:43.149Z,4.68
2023-01-12T22:46:17.877Z,5.53
2023-01-12T22:48:49.008Z,5.53
2023-01-12T22:51:17.580Z,6.80
2023-01-12T22:53:45.023Z,5.27
2023-01-12T22:56:12.591Z,6.63
2023-01-12T22:58:40.843Z,5.90
2023-01-12T23:01:09.985Z,6.00
2023-01-12T23:03:38.750Z,5.83
2023-01-12T23:06:10.745Z,6.10
2023-01-12T23:08:38.307Z,5.60
2023-01-12T23:11:14.381Z,5.13
2023-01-12T23:13:44.003Z,5.20
2023-01-12T23:16:14.033Z,5.30
2023-01-12T23:18:43.274Z,4.57
2023-01-12T23:21:16.846Z,5.57
2023-01-12T23:23:56.929Z,4.07
2023-01-12T23:26:27.460Z,5.43
2023-01-12T23:28:57.099Z,3.93
2023-01-12T23:31:27.535Z,4.73
2023-01-12T23:33:55.491Z,5.00
2023-01-12T23:36:27.751Z,4.90
2023-01-12T23:38:57.945Z,5.13
2023-01-12T23:41:28.637Z,4.33
2023-01-12T23:43:59.579Z,4.57
2023-01-12T23:46:28.577Z,4.97
2023-01-12T23:48:57.746Z,5.33
2023-01-12T23:51:27.662Z,5.50
2023-01-12T23:54:00.386Z,5.00
2023-01-12T23:56:29.832Z,5.70
2023-01-12T23:58:57.708Z,5.27
